Time;durP1;ratioP1;P1;durP2;ratioP2;P2;SDS_P1;SDS_P2;PMS_P1;PMS_P2;Temp;Humidity;BMP_temperature;BMP_pressure;BME280_temperature;BME280_humidity;BME280_pressure;Samples;Min_cycle;Max_cycle;Signal;HPM_P1;HPM_P2
2022/11/09 00:01:37;;;;;;;1.70;1.60;;;13.30;99.90;;;;;;5109658;28;20200;-72
2022/11/09 00:04:07;;;;;;;2.40;1.80;;;13.30;99.90;;;;;;5109375;28;20217;-71
2022/11/09 00:06:35;;;;;;;3.53;1.90;;;13.30;99.90;;;;;;5118927;27;20308;-71
2022/11/09 00:09:04;;;;;;;1.73;1.63;;;13.20;99.90;;;;;;5126937;27;20209;-71
2022/11/09 00:11:31;;;;;;;1.73;1.63;;;13.20;99.90;;;;;;5128771;27;20201;-71
2022/11/09 00:13:58;;;;;;;2.30;1.90;;;13.20;99.90;;;;;;5129596;27;20725;-71
2022/11/09 00:16:24;;;;;;;1.70;1.60;;;13.20;99.90;;;;;;5129510;27;20221;-72
2022/11/09 00:18:52;;;;;;;2.00;1.80;;;13.20;99.90;;;;;;5129459;27;20205;-72
2022/11/09 00:21:22;;;;;;;1.80;1.70;;;13.20;99.90;;;;;;5129686;27;20255;-70
2022/11/09 00:23:49;;;;;;;2.00;1.90;;;13.20;99.90;;;;;;5129273;27;20206;-70
2022/11/09 00:26:17;;;;;;;2.00;1.90;;;13.20;99.90;;;;;;5122797;27;20294;-71
2022/11/09 00:28:44;;;;;;;1.73;1.63;;;13.20;99.90;;;;;;5124740;27;20202;-72
2022/11/09 00:31:13;;;;;;;3.20;1.90;;;13.20;99.90;;;;;;5127110;27;20210;-71
2022/11/09 00:33:40;;;;;;;1.90;1.80;;;13.10;99.90;;;;;;5108716;28;20201;-71
2022/11/09 00:36:10;;;;;;;2.57;1.90;;;13.20;99.90;;;;;;5108492;28;20280;-70
2022/11/09 00:38:40;;;;;;;2.03;1.83;;;13.10;99.90;;;;;;5107617;28;20233;-70
2022/11/09 00:41:08;;;;;;;1.80;1.60;;;13.10;99.90;;;;;;5108165;28;20210;-70
2022/11/09 00:43:34;;;;;;;2.23;1.63;;;13.10;99.90;;;;;;5108725;28;20198;-70
2022/11/09 00:46:01;;;;;;;2.53;1.60;;;13.10;99.90;;;;;;5108211;28;20205;-70
2022/11/09 00:48:28;;;;;;;3.03;1.73;;;13.10;99.90;;;;;;5108533;28;20198;-70
2022/11/09 00:50:56;;;;;;;1.60;1.50;;;13.10;99.90;;;;;;5108073;28;20206;-70
2022/11/09 00:53:23;;;;;;;2.00;1.80;;;13.10;99.90;;;;;;5107961;28;20206;-70
2022/11/09 00:55:58;;;;;;;2.03;1.83;;;13.10;99.90;;;;;;5123979;27;20209;-71
2022/11/09 00:58:26;;;;;;;1.73;1.63;;;13.10;99.90;;;;;;5149241;27;20185;-71
2022/11/09 01:00:53;;;;;;;1.77;1.67;;;13.10;99.90;;;;;;5148633;27;20236;-71
2022/11/09 01:03:20;;;;;;;2.17;1.60;;;13.10;99.90;;;;;;5127772;27;20206;-71
2022/11/09 01:05:47;;;;;;;1.90;1.80;;;13.10;99.90;;;;;;5128270;27;20202;-71
2022/11/09 01:08:15;;;;;;;2.00;1.80;;;13.10;99.90;;;;;;5128610;27;20205;-71
2022/11/09 01:10:43;;;;;;;1.80;1.70;;;13.10;99.90;;;;;;5128100;27;20198;-71
2022/11/09 01:13:12;;;;;;;1.80;1.70;;;13.10;99.90;;;;;;5128123;27;20683;-72
2022/11/09 01:15:43;;;;;;;2.00;1.70;;;13.10;99.90;;;;;;5128343;27;20213;-72
2022/11/09 01:18:10;;;;;;;3.00;1.70;;;13.10;99.90;;;;;;5128874;27;20225;-71
2022/11/09 01:20:41;;;;;;;1.93;1.63;;;13.00;99.90;;;;;;5128132;27;20206;-72
2022/11/09 01:23:08;;;;;;;2.10;2.00;;;13.10;99.90;;;;;;5128201;27;20209;-71
2022/11/09 01:25:35;;;;;;;2.50;1.70;;;13.10;99.90;;;;;;5127844;27;20210;-71
2022/11/09 01:28:02;;;;;;;1.90;1.80;;;13.00;99.90;;;;;;5148087;27;20213;-71
2022/11/09 01:30:33;;;;;;;1.90;1.80;;;13.10;99.90;;;;;;5148630;27;20659;-71
2022/11/09 01:32:59;;;;;;;2.60;1.83;;;13.10;99.90;;;;;;5136020;27;20192;-71
2022/11/09 01:35:26;;;;;;;4.60;1.60;;;13.00;99.90;;;;;;5128049;27;20201;-71
2022/11/09 01:37:53;;;;;;;2.03;1.83;;;13.00;99.90;;;;;;5128241;27;20224;-71
2022/11/09 01:40:20;;;;;;;1.67;1.60;;;13.00;99.90;;;;;;5127870;27;20228;-71
2022/11/09 01:42:46;;;;;;;2.20;2.00;;;13.00;99.90;;;;;;5127566;27;20205;-71
2022/11/09 01:45:25;;;;;;;1.83;1.73;;;13.00;99.90;;;;;;5128411;27;20213;-71
2022/11/09 01:48:00;;;;;;;3.63;1.80;;;13.10;99.90;;;;;;5128161;27;20200;-71
2022/11/09 01:50:39;;;;;;;2.33;1.97;;;13.10;99.90;;;;;;5129207;27;20578;-71
2022/11/09 01:53:12;;;;;;;1.77;1.67;;;13.00;99.90;;;;;;5111532;28;20190;-70
2022/11/09 01:55:39;;;;;;;2.30;1.80;;;13.00;99.90;;;;;;5111488;28;20296;-70
2022/11/09 01:58:08;;;;;;;2.03;1.83;;;12.90;99.90;;;;;;5135780;27;20848;-70
2022/11/09 02:00:37;;;;;;;2.07;1.87;;;13.00;99.90;;;;;;5131768;27;20237;-71
2022/11/09 02:03:10;;;;;;;2.23;1.80;;;12.90;99.90;;;;;;5131590;27;20213;-70
2022/11/09 02:05:40;;;;;;;2.00;1.90;;;12.90;99.90;;;;;;5131675;27;20194;-70
2022/11/09 02:08:08;;;;;;;2.47;2.13;;;12.90;99.90;;;;;;5131419;27;20686;-70
2022/11/09 02:10:42;;;;;;;1.67;1.57;;;12.90;99.90;;;;;;5131026;27;22080;-70
2022/11/09 02:13:10;;;;;;;2.03;1.70;;;12.90;99.90;;;;;;5111508;28;20196;-70
2022/11/09 02:15:37;;;;;;;1.80;1.70;;;12.90;99.90;;;;;;5114740;27;20224;-70
2022/11/09 02:18:06;;;;;;;1.90;1.80;;;12.90;99.90;;;;;;5117457;27;20229;-70
2022/11/09 02:20:46;;;;;;;2.07;1.97;;;12.80;99.90;;;;;;5111017;28;20202;-70
2022/11/09 02:23:13;;;;;;;1.97;1.50;;;12.80;99.90;;;;;;5111088;28;20190;-70
2022/11/09 02:25:40;;;;;;;1.73;1.63;;;12.80;99.90;;;;;;5110420;27;20202;-70
2022/11/09 02:28:07;;;;;;;3.63;1.80;;;12.80;99.90;;;;;;5122979;27;20983;-70
2022/11/09 02:30:35;;;;;;;2.10;1.77;;;12.80;99.90;;;;;;5131509;27;20205;-70
2022/11/09 02:33:02;;;;;;;1.70;1.60;;;12.80;99.90;;;;;;5118576;27;20202;-69
2022/11/09 02:35:28;;;;;;;3.40;2.30;;;12.80;99.90;;;;;;5110742;28;20236;-71
2022/11/09 02:37:57;;;;;;;2.20;2.00;;;12.80;99.90;;;;;;5111172;27;20225;-71
2022/11/09 02:40:28;;;;;;;1.67;1.57;;;12.80;99.90;;;;;;5110428;28;20234;-71
2022/11/09 02:42:56;;;;;;;2.10;1.90;;;12.80;99.90;;;;;;5110799;28;20195;-70
2022/11/09 02:45:23;;;;;;;2.40;1.90;;;12.80;99.90;;;;;;5110827;28;20202;-70
2022/11/09 02:47:49;;;;;;;3.60;2.10;;;12.80;99.90;;;;;;5111398;27;20306;-70
2022/11/09 02:50:16;;;;;;;2.07;1.67;;;12.70;99.90;;;;;;5110782;28;20202;-70
2022/11/09 02:52:43;;;;;;;2.07;1.87;;;12.70;99.90;;;;;;5110515;28;20214;-72
2022/11/09 02:55:11;;;;;;;2.23;2.03;;;12.70;99.90;;;;;;5118047;27;20227;-72
2022/11/09 02:57:38;;;;;;;2.17;2.00;;;12.70;99.90;;;;;;5147228;27;20785;-72
2022/11/09 03:00:06;;;;;;;2.20;1.97;;;12.70;99.90;;;;;;5132510;27;20237;-72
2022/11/09 03:02:33;;;;;;;2.50;1.87;;;12.70;99.90;;;;;;5129940;27;20205;-70
2022/11/09 03:05:00;;;;;;;1.77;1.60;;;12.80;99.90;;;;;;5130289;27;20564;-70
2022/11/09 03:07:27;;;;;;;1.37;1.37;;;12.80;99.90;;;;;;5130452;27;20201;-70
2022/11/09 03:09:53;;;;;;;1.73;1.60;;;12.70;99.90;;;;;;5130306;27;20198;-70
2022/11/09 03:12:30;;;;;;;1.87;1.77;;;12.70;99.90;;;;;;5114698;27;20560;-70
2022/11/09 03:14:58;;;;;;;1.80;1.70;;;12.70;99.90;;;;;;5110014;28;20201;-70
2022/11/09 03:17:25;;;;;;;1.80;1.70;;;12.70;99.90;;;;;;5128993;27;20225;-70
2022/11/09 03:19:52;;;;;;;2.70;1.80;;;12.70;99.90;;;;;;5130678;27;20563;-70
2022/11/09 03:22:19;;;;;;;1.70;1.60;;;12.70;99.90;;;;;;5130698;27;20224;-70
2022/11/09 03:24:45;;;;;;;2.50;1.80;;;12.70;99.90;;;;;;5130442;27;20210;-70
2022/11/09 03:27:13;;;;;;;6.37;2.10;;;12.80;99.90;;;;;;5143009;27;20217;-70
2022/11/09 03:29:41;;;;;;;3.80;1.70;;;12.80;99.90;;;;;;5151133;27;20196;-70
2022/11/09 03:32:08;;;;;;;1.70;1.60;;;12.80;99.90;;;;;;5145662;27;20205;-70
2022/11/09 03:34:35;;;;;;;1.83;1.73;;;12.80;99.90;;;;;;5130408;27;20215;-71
2022/11/09 03:37:01;;;;;;;2.53;1.77;;;12.80;99.90;;;;;;5128191;27;20244;-70
2022/11/09 03:39:28;;;;;;;1.77;1.67;;;12.80;99.90;;;;;;5109157;28;20237;-70
2022/11/09 03:41:55;;;;;;;2.07;1.80;;;12.80;99.90;;;;;;5109555;28;20206;-71
2022/11/09 03:44:22;;;;;;;1.40;1.40;;;12.80;99.90;;;;;;5122617;27;20210;-70
2022/11/09 03:46:50;;;;;;;2.57;1.67;;;12.80;99.90;;;;;;5129848;27;20206;-70
2022/11/09 03:49:17;;;;;;;1.90;1.80;;;12.80;99.90;;;;;;5130283;27;20220;-71
2022/11/09 03:51:44;;;;;;;1.93;1.50;;;12.80;99.90;;;;;;5140516;27;20201;-70
2022/11/09 03:54:10;;;;;;;2.40;1.77;;;12.80;99.90;;;;;;5150467;27;20212;-70
2022/11/09 03:56:37;;;;;;;2.70;1.93;;;12.80;99.90;;;;;;5124972;27;20575;-70
2022/11/09 03:59:04;;;;;;;1.70;1.60;;;12.90;99.90;;;;;;5150082;27;20240;-71
2022/11/09 04:01:31;;;;;;;1.70;1.60;;;12.80;99.90;;;;;;5140484;27;20196;-71
2022/11/09 04:03:59;;;;;;;1.90;1.80;;;12.90;99.90;;;;;;5129527;27;20688;-71
2022/11/09 04:06:26;;;;;;;2.00;1.80;;;12.80;99.90;;;;;;5129787;27;20209;-69
2022/11/09 04:08:53;;;;;;;2.30;2.00;;;12.90;99.90;;;;;;5121652;27;20204;-69
2022/11/09 04:11:21;;;;;;;1.70;1.60;;;12.80;99.90;;;;;;5129391;27;20208;-69
2022/11/09 04:13:48;;;;;;;1.83;1.73;;;12.80;99.90;;;;;;5129222;27;20680;-70
2022/11/09 04:16:15;;;;;;;2.13;1.97;;;12.80;99.90;;;;;;5129386;27;20209;-69
2022/11/09 04:18:42;;;;;;;1.70;1.60;;;12.80;99.90;;;;;;5129266;27;20238;-69
2022/11/09 04:21:10;;;;;;;1.87;1.73;;;12.80;99.90;;;;;;5129576;27;20208;-71
2022/11/09 04:23:36;;;;;;;1.97;1.87;;;12.80;99.90;;;;;;5129460;27;20206;-71
2022/11/09 04:26:03;;;;;;;2.70;1.63;;;12.90;99.90;;;;;;5132276;27;20205;-70
2022/11/09 04:28:30;;;;;;;1.70;1.60;;;12.80;99.90;;;;;;5150324;27;20205;-71
2022/11/09 04:31:00;;;;;;;2.47;2.10;;;12.80;99.90;;;;;;5150252;27;20208;-71
2022/11/09 04:33:28;;;;;;;2.17;1.70;;;12.90;99.90;;;;;;5133284;27;20667;-71
2022/11/09 04:35:54;;;;;;;1.80;1.70;;;12.80;99.90;;;;;;5129209;27;20206;-71
2022/11/09 04:38:22;;;;;;;3.63;1.80;;;12.90;99.90;;;;;;5123622;27;20233;-71
2022/11/09 04:40:49;;;;;;;2.00;1.90;;;12.80;99.90;;;;;;5128484;27;20209;-72
2022/11/09 04:43:16;;;;;;;1.93;1.73;;;12.80;99.90;;;;;;5129313;27;20209;-71
2022/11/09 04:45:43;;;;;;;2.83;1.50;;;12.80;99.90;;;;;;5128979;27;20201;-72
2022/11/09 04:48:10;;;;;;;1.80;1.70;;;12.80;99.90;;;;;;5117685;27;20297;-71
2022/11/09 04:50:38;;;;;;;1.93;1.80;;;12.80;99.90;;;;;;5110057;27;20206;-71
2022/11/09 04:53:06;;;;;;;3.53;1.90;;;12.80;99.90;;;;;;5128984;27;20573;-71
2022/11/09 04:55:35;;;;;;;1.70;1.60;;;12.80;99.90;;;;;;5128421;27;20213;-72
2022/11/09 04:58:02;;;;;;;2.90;1.80;;;12.80;99.90;;;;;;5148168;27;20236;-71
2022/11/09 05:00:29;;;;;;;1.80;1.70;;;12.80;99.90;;;;;;5148880;27;20240;-71
2022/11/09 05:02:58;;;;;;;4.80;1.80;;;12.80;99.90;;;;;;5137197;27;20700;-71
2022/11/09 05:05:25;;;;;;;3.80;2.03;;;12.80;99.90;;;;;;5107731;28;20210;-71
2022/11/09 05:07:52;;;;;;;2.30;1.60;;;12.90;99.90;;;;;;5107672;28;20206;-71
2022/11/09 05:10:18;;;;;;;1.90;1.80;;;12.80;99.90;;;;;;5107894;28;20206;-71
2022/11/09 05:12:46;;;;;;;2.17;1.60;;;12.80;99.90;;;;;;5108102;28;20213;-71
2022/11/09 05:15:13;;;;;;;2.23;1.93;;;12.80;99.90;;;;;;5117507;27;20205;-70
2022/11/09 05:17:40;;;;;;;2.83;1.97;;;12.80;99.90;;;;;;5128153;27;20241;-71
2022/11/09 05:20:08;;;;;;;1.77;1.67;;;12.80;99.90;;;;;;5128451;27;20202;-70
2022/11/09 05:25:23;;;;;;;1.90;1.80;;;12.90;99.90;;;;;;5127367;27;20563;-71
2022/11/09 05:27:51;;;;;;;3.53;2.00;;;12.80;99.90;;;;;;5146290;27;20593;-70
2022/11/09 05:30:18;;;;;;;1.90;1.70;;;12.90;99.90;;;;;;5148726;27;20204;-71
2022/11/09 05:32:45;;;;;;;2.10;1.90;;;12.80;99.90;;;;;;5125845;27;20201;-70
2022/11/09 05:35:12;;;;;;;3.43;2.00;;;12.80;99.90;;;;;;5107725;28;20210;-71
2022/11/09 05:37:39;;;;;;;1.67;1.57;;;12.80;99.90;;;;;;5126216;28;20218;-70
2022/11/09 05:40:08;;;;;;;2.30;1.70;;;12.80;99.90;;;;;;5127615;27;20800;-70
2022/11/09 05:42:34;;;;;;;2.50;1.70;;;12.80;99.90;;;;;;5127904;27;20205;-72
2022/11/09 05:45:02;;;;;;;2.70;1.97;;;12.80;99.90;;;;;;5120558;27;20197;-70
2022/11/09 05:47:29;;;;;;;2.00;1.90;;;12.80;99.90;;;;;;5114294;27;20209;-70
2022/11/09 05:49:56;;;;;;;2.47;1.90;;;12.80;99.90;;;;;;5128036;27;20205;-70
2022/11/09 05:52:23;;;;;;;2.03;1.93;;;12.80;99.90;;;;;;5127937;27;20690;-71
2022/11/09 05:54:49;;;;;;;2.00;1.80;;;12.80;99.90;;;;;;5127714;27;20201;-71
2022/11/09 05:57:16;;;;;;;1.93;1.70;;;12.80;99.90;;;;;;5141400;27;20378;-71
2022/11/09 05:59:43;;;;;;;1.87;1.77;;;12.80;99.90;;;;;;5148182;27;20244;-71
2022/11/09 06:02:11;;;;;;;2.27;1.90;;;12.80;99.90;;;;;;5148519;27;20205;-70
2022/11/09 06:04:37;;;;;;;2.13;1.93;;;12.80;99.90;;;;;;5141361;27;20198;-70
2022/11/09 06:07:04;;;;;;;2.27;1.80;;;12.80;99.90;;;;;;5127975;27;20208;-70
2022/11/09 06:09:31;;;;;;;2.10;1.97;;;12.80;99.90;;;;;;5127921;27;20220;-70
2022/11/09 06:11:58;;;;;;;3.23;2.10;;;12.80;99.90;;;;;;5128117;27;20201;-70
2022/11/09 06:14:26;;;;;;;1.80;1.70;;;12.80;99.90;;;;;;5127765;27;20552;-70
2022/11/09 06:16:53;;;;;;;4.73;2.17;;;12.80;99.90;;;;;;5127719;27;20205;-70
2022/11/09 06:19:21;;;;;;;2.53;2.20;;;12.80;99.90;;;;;;5127874;27;20229;-70
2022/11/09 06:21:50;;;;;;;1.97;1.87;;;12.80;99.90;;;;;;5128014;27;20565;-69
2022/11/09 06:24:17;;;;;;;2.20;2.00;;;12.80;99.90;;;;;;5127776;27;20205;-69
2022/11/09 06:26:44;;;;;;;4.33;2.20;;;12.80;99.90;;;;;;5136550;27;20296;-69
2022/11/09 06:29:11;;;;;;;2.43;2.33;;;12.80;99.90;;;;;;5148275;27;20200;-69
2022/11/09 06:31:37;;;;;;;2.30;2.10;;;12.80;99.90;;;;;;5138951;27;20660;-69
2022/11/09 06:34:04;;;;;;;4.10;1.93;;;12.80;99.90;;;;;;5107544;27;20364;-69
2022/11/09 06:36:32;;;;;;;2.00;1.90;;;12.80;99.90;;;;;;5107193;28;20601;-69
2022/11/09 06:38:59;;;;;;;2.23;2.03;;;12.80;99.90;;;;;;5109871;28;20230;-70
2022/11/09 06:41:26;;;;;;;3.70;2.20;;;12.80;99.90;;;;;;5110164;28;20221;-70
2022/11/09 06:43:52;;;;;;;3.30;2.30;;;12.80;99.90;;;;;;5118080;27;20659;-70
2022/11/09 06:46:20;;;;;;;2.40;2.00;;;12.80;99.90;;;;;;5127777;27;20205;-70
2022/11/09 06:48:46;;;;;;;3.67;2.23;;;12.80;99.90;;;;;;5124420;27;20194;-70
2022/11/09 06:51:14;;;;;;;3.53;2.00;;;12.80;99.90;;;;;;5110666;28;20209;-70
2022/11/09 06:53:42;;;;;;;2.43;2.03;;;12.80;99.90;;;;;;5110393;28;20198;-70
2022/11/09 06:56:09;;;;;;;5.87;2.40;;;12.80;99.90;;;;;;5110306;27;20213;-69
2022/11/09 06:58:36;;;;;;;2.63;2.00;;;12.80;99.90;;;;;;5110420;28;20230;-70
2022/11/09 07:01:07;;;;;;;3.10;2.30;;;12.80;99.90;;;;;;5110555;27;20245;-71
2022/11/09 07:03:34;;;;;;;3.47;2.00;;;12.70;99.90;;;;;;5110232;28;20199;-71
2022/11/09 07:06:04;;;;;;;2.40;2.10;;;12.70;99.90;;;;;;5110211;28;20210;-71
2022/11/09 07:08:31;;;;;;;2.77;2.47;;;12.70;99.90;;;;;;5110271;28;20205;-71
2022/11/09 07:11:04;;;;;;;2.30;2.10;;;12.70;99.90;;;;;;5109996;28;20217;-71
2022/11/09 07:13:31;;;;;;;3.33;2.10;;;12.60;99.90;;;;;;5110014;28;20582;-70
2022/11/09 07:15:58;;;;;;;2.07;1.97;;;12.60;99.90;;;;;;5116603;27;20197;-70
2022/11/09 07:18:24;;;;;;;3.17;2.27;;;12.60;99.90;;;;;;5130501;27;20232;-70
2022/11/09 07:20:51;;;;;;;2.23;2.03;;;12.50;99.90;;;;;;5130380;27;20212;-71
2022/11/09 07:23:18;;;;;;;2.37;2.17;;;12.50;99.90;;;;;;5124058;27;20213;-71
2022/11/09 07:25:45;;;;;;;2.60;2.30;;;12.40;99.90;;;;;;5109960;27;20206;-69
2022/11/09 07:28:13;;;;;;;2.20;2.10;;;12.50;99.90;;;;;;5119041;27;20229;-70
2022/11/09 07:30:40;;;;;;;2.63;2.23;;;12.50;99.90;;;;;;5109834;28;20210;-70
2022/11/09 07:33:14;;;;;;;3.27;2.00;;;12.40;99.90;;;;;;5109637;28;20221;-71
2022/11/09 07:35:40;;;;;;;2.37;2.27;;;12.50;99.90;;;;;;5111251;27;20577;-71
2022/11/09 07:38:07;;;;;;;3.63;2.10;;;12.50;99.90;;;;;;5129950;27;20225;-71
2022/11/09 07:40:34;;;;;;;2.10;2.00;;;12.30;99.90;;;;;;5130049;27;20205;-70
2022/11/09 07:43:02;;;;;;;2.60;2.30;;;12.30;99.90;;;;;;5130120;27;20205;-70
2022/11/09 07:45:31;;;;;;;3.30;2.40;;;12.30;99.90;;;;;;5128093;27;20204;-70
2022/11/09 07:47:59;;;;;;;3.37;2.23;;;12.40;99.90;;;;;;5129384;27;20205;-70
2022/11/09 07:50:26;;;;;;;4.17;2.30;;;12.40;99.90;;;;;;5129535;27;20216;-70
2022/11/09 07:52:54;;;;;;;2.50;2.30;;;12.40;99.90;;;;;;5129730;27;20209;-71
2022/11/09 07:55:21;;;;;;;2.50;2.30;;;12.40;99.90;;;;;;5129325;27;20209;-69
2022/11/09 07:57:49;;;;;;;6.73;2.20;;;12.50;99.90;;;;;;5144789;27;20213;-71
2022/11/09 08:00:17;;;;;;;2.30;2.10;;;12.50;99.90;;;;;;5150395;27;20596;-68
2022/11/09 08:02:49;;;;;;;2.77;2.30;;;12.50;99.90;;;;;;5150651;27;20212;-69
2022/11/09 08:05:16;;;;;;;2.20;2.10;;;12.50;99.90;;;;;;5128375;27;20664;-69
2022/11/09 08:07:42;;;;;;;3.43;2.17;;;12.50;99.90;;;;;;5108903;27;20737;-69
2022/11/09 08:10:10;;;;;;;2.07;1.93;;;12.50;99.90;;;;;;5108452;28;20202;-69
2022/11/09 08:12:37;;;;;;;2.60;2.37;;;12.50;99.90;;;;;;5112149;27;20194;-69
2022/11/09 08:15:04;;;;;;;2.77;2.30;;;12.50;99.90;;;;;;5129262;27;20652;-68
2022/11/09 08:17:31;;;;;;;3.80;2.20;;;12.50;99.90;;;;;;5129315;27;20206;-69
2022/11/09 08:20:02;;;;;;;2.40;2.20;;;12.50;99.90;;;;;;5129360;27;20229;-69
2022/11/09 08:22:29;;;;;;;2.57;2.37;;;12.50;99.90;;;;;;5128837;27;20560;-68
2022/11/09 08:24:55;;;;;;;2.47;2.27;;;12.50;99.90;;;;;;5122960;27;20206;-69
2022/11/09 08:27:22;;;;;;;2.23;2.03;;;12.50;99.90;;;;;;5137382;27;20221;-69
2022/11/09 08:29:49;;;;;;;3.13;2.43;;;12.50;99.90;;;;;;5149768;27;20679;-69
2022/11/09 08:32:16;;;;;;;3.43;2.43;;;12.50;99.90;;;;;;5129709;27;20212;-68
2022/11/09 08:34:47;;;;;;;2.40;2.23;;;12.50;99.90;;;;;;5150334;27;20563;-69
2022/11/09 08:37:15;;;;;;;2.07;1.97;;;12.50;99.90;;;;;;5134746;27;20228;-69
2022/11/09 08:39:42;;;;;;;2.50;2.40;;;12.50;99.90;;;;;;5128658;27;20233;-69
2022/11/09 08:42:08;;;;;;;2.50;2.30;;;12.50;99.90;;;;;;5126699;27;20202;-69
2022/11/09 08:44:35;;;;;;;3.03;2.73;;;12.50;99.90;;;;;;5129242;27;20209;-68
2022/11/09 08:47:02;;;;;;;2.70;2.50;;;12.50;99.90;;;;;;5128521;27;20205;-69
2022/11/09 08:49:29;;;;;;;2.40;2.30;;;12.40;99.90;;;;;;5129034;27;20212;-69
2022/11/09 08:51:57;;;;;;;2.30;2.20;;;12.40;99.90;;;;;;5128931;27;20285;-70
2022/11/09 08:54:26;;;;;;;2.30;2.17;;;12.50;99.90;;;;;;5128737;27;20224;-69
2022/11/09 08:56:55;;;;;;;2.60;2.17;;;12.40;99.90;;;;;;5138662;27;20219;-69
2022/11/09 08:59:22;;;;;;;2.60;2.30;;;12.40;99.90;;;;;;5127440;27;20250;-69
2022/11/09 09:01:49;;;;;;;3.37;2.83;;;12.50;99.90;;;;;;5105505;28;20194;-69
2022/11/09 09:04:15;;;;;;;2.80;2.60;;;12.50;99.90;;;;;;5105895;28;20217;-69
2022/11/09 09:06:42;;;;;;;2.60;2.40;;;12.50;99.90;;;;;;5106022;28;20229;-69
2022/11/09 09:09:09;;;;;;;2.57;2.47;;;12.50;99.90;;;;;;5105416;28;20678;-69
2022/11/09 09:11:37;;;;;;;2.70;2.50;;;12.60;99.90;;;;;;5105537;28;20206;-69
2022/11/09 09:14:04;;;;;;;2.70;2.50;;;12.50;99.90;;;;;;5105178;28;20210;-69
2022/11/09 09:16:31;;;;;;;3.60;2.73;;;12.50;99.90;;;;;;5115057;27;20672;-69
2022/11/09 09:18:57;;;;;;;2.43;2.27;;;12.60;99.90;;;;;;5105107;28;20237;-69
2022/11/09 09:21:27;;;;;;;3.37;2.60;;;12.60;99.90;;;;;;5105539;28;20210;-69
2022/11/09 09:23:55;;;;;;;4.67;2.60;;;12.60;99.90;;;;;;5105791;28;20253;-70
2022/11/09 09:26:22;;;;;;;3.10;2.90;;;12.60;99.90;;;;;;5117241;27;20667;-70
2022/11/09 09:28:51;;;;;;;3.13;2.67;;;12.70;99.90;;;;;;5140601;27;20282;-70
2022/11/09 09:31:18;;;;;;;3.67;2.57;;;12.80;99.90;;;;;;5122545;27;20202;-69
2022/11/09 09:33:45;;;;;;;4.43;2.50;;;12.90;99.90;;;;;;5116560;27;20203;-68
2022/11/09 09:36:17;;;;;;;2.70;2.50;;;13.00;99.90;;;;;;5126206;27;20209;-69
2022/11/09 09:38:44;;;;;;;2.50;2.30;;;13.00;99.90;;;;;;5126001;27;20281;-69
2022/11/09 09:41:21;;;;;;;3.13;2.90;;;13.10;99.90;;;;;;5126174;27;20645;-70
2022/11/09 09:43:53;;;;;;;3.40;3.17;;;13.20;99.90;;;;;;5125596;27;20789;-69
2022/11/09 09:46:25;;;;;;;2.60;2.40;;;13.20;99.90;;;;;;5126084;27;20194;-68
2022/11/09 09:48:56;;;;;;;2.47;2.27;;;13.30;99.90;;;;;;5125574;27;20197;-68
2022/11/09 09:51:29;;;;;;;2.50;2.30;;;13.40;99.90;;;;;;5114964;27;20190;-68
2022/11/09 09:53:59;;;;;;;2.50;2.30;;;13.40;99.90;;;;;;5105356;28;20190;-68
2022/11/09 09:56:32;;;;;;;2.50;2.30;;;13.30;99.90;;;;;;5122247;27;20235;-68
2022/11/09 09:59:05;;;;;;;3.83;2.60;;;13.30;99.90;;;;;;5145794;27;20217;-69
2022/11/09 10:01:37;;;;;;;4.40;2.53;;;13.30;99.90;;;;;;5146201;27;20201;-68
2022/11/09 10:04:15;;;;;;;2.40;2.20;;;13.30;99.90;;;;;;5143650;27;20201;-68
2022/11/09 10:06:58;;;;;;;2.60;2.40;;;13.40;99.90;;;;;;5125677;27;20675;-69
2022/11/09 10:09:38;;;;;;;2.93;2.40;;;13.40;99.90;;;;;;5125843;27;20804;-70
2022/11/09 10:12:15;;;;;;;3.63;2.60;;;13.40;99.90;;;;;;5116667;27;20194;-69
2022/11/09 10:15:09;;;;;;;2.60;2.40;;;13.40;99.90;;;;;;5128416;27;20198;-69
2022/11/09 10:17:44;;;;;;;2.37;2.27;;;13.50;99.90;;;;;;5122124;27;20305;-69
2022/11/09 10:20:32;;;;;;;2.90;2.57;;;13.60;99.90;;;;;;5129062;27;20221;-70
2022/11/09 10:23:19;;;;;;;4.53;2.83;;;13.70;99.90;;;;;;5115581;27;20209;-70
2022/11/09 10:25:48;;;;;;;3.20;2.30;;;13.60;99.90;;;;;;5117640;27;20291;-71
2022/11/09 10:28:16;;;;;;;3.57;2.67;;;13.60;99.90;;;;;;5147269;27;20209;-69
2022/11/09 10:30:44;;;;;;;2.50;2.30;;;13.60;99.90;;;;;;5129524;27;20213;-70
2022/11/09 10:33:17;;;;;;;3.10;2.90;;;13.60;99.90;;;;;;5129045;27;20260;-70
2022/11/09 10:35:48;;;;;;;2.90;2.73;;;13.70;99.90;;;;;;5129067;27;20293;-70
2022/11/09 10:38:21;;;;;;;3.13;2.27;;;13.90;99.90;;;;;;5129205;27;20233;-70
2022/11/09 10:40:52;;;;;;;2.27;2.10;;;14.00;99.90;;;;;;5129014;27;20217;-70
2022/11/09 10:43:19;;;;;;;2.30;2.20;;;14.20;99.90;;;;;;5129410;27;20205;-70
2022/11/09 10:45:58;;;;;;;2.53;2.40;;;14.20;99.90;;;;;;5126854;27;20674;-70
2022/11/09 10:48:31;;;;;;;2.60;2.40;;;14.30;99.90;;;;;;5128945;27;20216;-71
2022/11/09 10:50:58;;;;;;;2.93;2.47;;;14.30;99.90;;;;;;5129591;27;20197;-70
2022/11/09 10:53:27;;;;;;;2.73;2.53;;;14.40;99.90;;;;;;5129485;27;20212;-71
2022/11/09 10:55:55;;;;;;;3.30;2.37;;;14.50;99.90;;;;;;5129898;27;21108;-71
2022/11/09 10:58:31;;;;;;;4.00;2.97;;;14.60;99.90;;;;;;5122456;27;20208;-70
2022/11/09 11:01:02;;;;;;;3.07;2.77;;;14.70;99.90;;;;;;5107803;28;20253;-70
2022/11/09 11:03:31;;;;;;;3.33;2.83;;;14.80;99.90;;;;;;5108197;28;20682;-70
2022/11/09 11:06:00;;;;;;;2.40;2.20;;;14.80;99.90;;;;;;5108966;27;20214;-70
2022/11/09 11:08:31;;;;;;;2.50;2.10;;;14.90;99.90;;;;;;5113998;27;20206;-71
2022/11/09 11:11:15;;;;;;;2.63;2.43;;;15.00;99.90;;;;;;5107765;28;20202;-70
2022/11/09 11:13:42;;;;;;;3.23;2.40;;;15.00;99.90;;;;;;5115187;27;20209;-70
2022/11/09 11:16:34;;;;;;;2.53;2.17;;;15.10;99.90;;;;;;5128234;27;20256;-70
2022/11/09 11:19:01;;;;;;;3.97;2.67;;;15.00;99.90;;;;;;5113837;27;20202;-70
2022/11/09 11:21:29;;;;;;;3.03;2.30;;;14.80;99.90;;;;;;5136574;27;20200;-70
2022/11/09 11:24:13;;;;;;;2.20;1.97;;;14.80;99.90;;;;;;5148028;27;20211;-70
2022/11/09 11:26:47;;;;;;;2.00;1.90;;;14.70;99.90;;;;;;5126644;27;20212;-70
2022/11/09 11:29:32;;;;;;;1.90;1.80;;;14.80;99.90;;;;;;5135208;27;20193;-70
2022/11/09 11:32:00;;;;;;;1.73;1.63;;;14.90;99.90;;;;;;5128792;27;20555;-71
2022/11/09 11:34:28;;;;;;;1.83;1.73;;;15.00;99.90;;;;;;5119625;27;20201;-71
2022/11/09 11:37:07;;;;;;;2.30;1.70;;;15.10;99.90;;;;;;5118988;27;20212;-71
2022/11/09 11:39:45;;;;;;;2.17;1.97;;;15.20;99.90;;;;;;5111758;27;20229;-71
2022/11/09 11:42:30;;;;;;;1.67;1.57;;;15.10;99.90;;;;;;5107391;28;20228;-71
2022/11/09 11:45:12;;;;;;;1.70;1.60;;;15.10;99.90;;;;;;5107588;28;20202;-71
2022/11/09 11:47:49;;;;;;;1.90;1.70;;;15.10;99.90;;;;;;5107345;28;20681;-71
2022/11/09 11:50:33;;;;;;;1.90;1.80;;;15.10;99.90;;;;;;5107595;27;20223;-71
2022/11/09 11:53:12;;;;;;;1.80;1.70;;;15.20;99.90;;;;;;5128249;27;20205;-70
2022/11/09 11:56:00;;;;;;;2.67;1.80;;;15.30;99.90;;;;;;5128068;27;20221;-71
2022/11/09 11:58:43;;;;;;;1.80;1.70;;;15.50;99.90;;;;;;5106548;28;20194;-71
2022/11/09 12:01:25;;;;;;;2.70;1.87;;;15.80;99.90;;;;;;5106552;28;20687;-72
2022/11/09 12:04:07;;;;;;;1.90;1.60;;;15.80;99.90;;;;;;5106554;28;20622;-71
2022/11/09 12:07:01;;;;;;;1.57;1.57;;;16.00;99.90;;;;;;5107411;27;20190;-72
2022/11/09 12:09:55;;;;;;;1.77;1.67;;;16.10;99.90;;;;;;5110511;27;20291;-71
2022/11/09 12:12:36;;;;;;;1.60;1.50;;;16.10;99.90;;;;;;5127099;27;20300;-71
2022/11/09 12:15:22;;;;;;;1.67;1.43;;;16.00;99.90;;;;;;5127954;27;20242;-71
2022/11/09 12:18:00;;;;;;;2.70;1.40;;;15.90;99.90;;;;;;5115791;27;20205;-71
2022/11/09 12:20:35;;;;;;;1.80;1.70;;;15.90;99.90;;;;;;5117656;27;20218;-71
2022/11/09 12:23:28;;;;;;;1.63;1.53;;;15.90;99.90;;;;;;5106120;28;20292;-71
2022/11/09 12:26:04;;;;;;;1.37;1.27;;;16.10;99.90;;;;;;5109421;27;20223;-71
2022/11/09 12:28:54;;;;;;;1.43;1.33;;;16.10;99.90;;;;;;5147508;27;20215;-71
2022/11/09 12:31:32;;;;;;;1.40;1.30;;;16.30;99.90;;;;;;5147575;27;20204;-72
2022/11/09 12:34:03;;;;;;;2.07;1.90;;;16.60;99.90;;;;;;5117185;27;20250;-71
2022/11/09 12:36:38;;;;;;;1.80;1.70;;;16.70;99.90;;;;;;5127045;27;20308;-72
2022/11/09 12:39:11;;;;;;;1.27;1.27;;;16.80;99.90;;;;;;5117561;27;20303;-72
2022/11/09 12:41:39;;;;;;;1.60;1.50;;;16.80;99.90;;;;;;5127155;27;20204;-72
2022/11/09 12:44:13;;;;;;;1.50;1.40;;;16.80;99.90;;;;;;5126952;27;20468;-72
2022/11/09 12:46:44;;;;;;;1.63;1.53;;;16.80;99.90;;;;;;5124893;27;20901;-72
2022/11/09 12:49:33;;;;;;;1.63;1.50;;;16.70;99.90;;;;;;5126398;27;20209;-72
2022/11/09 12:52:03;;;;;;;2.63;1.30;;;16.70;99.90;;;;;;5126280;27;20190;-72
2022/11/09 12:54:30;;;;;;;1.20;1.20;;;16.70;99.90;;;;;;5126941;27;20659;-72
2022/11/09 12:56:59;;;;;;;1.57;1.20;;;16.70;99.90;;;;;;5137073;27;20257;-72
2022/11/09 12:59:36;;;;;;;2.00;1.10;;;16.70;99.90;;;;;;5146730;27;20794;-72
2022/11/09 13:02:05;;;;;;;1.30;1.20;;;16.70;99.90;;;;;;5120510;27;20243;-72
2022/11/09 13:04:33;;;;;;;1.30;1.20;;;16.70;99.90;;;;;;5106444;28;20206;-72